Detall de PIREP

Printer-friendly versionPDF version

[2016/08/07 09:28:00]
Flight IATA:CT1004
Pilot Number:012
Company ICAO:CAT
Aircraft Type:B763/F
PAX:257
Departing Airport: LIEA
Destination Airport: LUKK
Alternate Airport:UKWW
Online: VATSIM
Route:MINKA UL5 SOMUN UN978 MAVIT Z317 EVRIK T802 BUSES
Flight Level:F370
No Slew and time accel
No pause
Crash detect
Detect pilot in Cockpit between each 30 and 45 minutes
09:28 Zero fuel Weight: 251480 Lbs, Fuel Weight: 41157 Lbs
09:28 VATSIM:LIEA 070920Z 03012KT CAVOK 29/12 Q1020
09:28 VATSIM:LUKK 070900Z 33019KT CAVOK 28/18 Q1017 R26/CLRD// TEMPO 35018G28KT
09:28 SUMMER CHARTER
09:29 Parking Brakes off
09:33 Take-off
09:33 Take off Weight: 291396 Lbs
09:33 Wind: 028º @ 012 Knots Heading: 024º
09:33 POS N40º 37´ 49´´ E008º 17´ 24´´
09:33 Gear Up: 176 Knots
09:33 Flaps:2 at 176 Knots
09:34 Flaps:1 at 205 Knots
09:34 Flaps:0 at 209 Knots
09:45 TOC
09:45 Fuel Weight: 34231 Lb
09:48 Wind:008º@041 Knots Heading: 063º Ground Speed: 455 Knots Altitude 37198 ft
10:03 Wind:359º@043 Knots Heading: 056º Ground Speed: 458 Knots Altitude 37086 ft
10:18 Wind:014º@052 Knots Heading: 056º Ground Speed: 438 Knots Altitude 37178 ft
10:33 Wind:058º@029 Knots Heading: 063º Ground Speed: 445 Knots Altitude 37168 ft
10:48 Wind:087º@017 Knots Heading: 066º Ground Speed: 451 Knots Altitude 37335 ft
11:03 Wind:122º@014 Knots Heading: 068º Ground Speed: 467 Knots Altitude 37224 ft
11:18 Wind:199º@011 Knots Heading: 069º Ground Speed: 485 Knots Altitude 37204 ft
11:29 TOD
11:29 Fuel Weight: 18204 Lb
11:33 Wind:259º@011 Knots Heading: 070º Ground Speed: 468 Knots Altitude 24117 ft
11:47 Flaps:1 at 225 Knots
11:48 Wind:000º@016 Knots Heading: 132º Ground Speed: 250 Knots Altitude 3969 ft
11:51 Flaps:2 at 215 Knots
11:51 Flaps:3 at 192 Knots
11:52 Gear Down: 191 Knots
11:52 Flaps:4 at 186 Knots
11:54 Flaps:5 at 157 Knots
11:55 Flaps:6 at 146 Knots
11:56 TouchDown:Rate -176 ft/min Speed: 125 Knots
11:56 VATSIM:LUKK 071130Z 34017KT CAVOK 29/18 Q1016 R26/CLRD// TEMPO 35018G28KT
11:56 Land
11:56 Wind:324º@017 Knots
11:56 Heading: 265º
11:56 Flight Duration: 02:23
11:56 Landing Weight: 266766 Lbs
11:56 POS N46º 55´ 42´´ E028º 56´ 15´´
11:58 Parking brakes on
11:58 Block to Block Duration: 02:29
11:58 Final Fuel: 14876 Lbls
11:58 Spent Fuel: 26280 Lbls
11:58 Flight Length: 1013 NM
11:58 TOD Land Length: 138 NM

Exportar CSV

Powered by Drupal - Modified by Danger4k